createdAt,value
2022-10-29T00:01:57.003Z,52.96
2022-10-29T00:05:01.238Z,53.02
2022-10-29T00:08:04.138Z,53.15
2022-10-29T00:11:07.861Z,53.06
2022-10-29T00:14:10.657Z,52.88
2022-10-29T00:17:16.004Z,52.99
2022-10-29T00:20:21.052Z,53.01
2022-10-29T00:23:23.862Z,52.87
2022-10-29T00:26:26.987Z,53.15
2022-10-29T00:29:29.766Z,53.03
2022-10-29T00:32:32.547Z,52.81
2022-10-29T00:35:36.681Z,52.83
2022-10-29T00:38:39.722Z,53.20
2022-10-29T00:41:42.550Z,53.02
2022-10-29T00:44:45.552Z,53.06
2022-10-29T00:47:51.599Z,53.18
2022-10-29T00:50:56.528Z,53.23
2022-10-29T00:54:00.535Z,53.16
2022-10-29T00:57:05.218Z,53.08
2022-10-29T01:00:08.717Z,53.27
2022-10-29T01:03:11.791Z,53.31
2022-10-29T01:06:16.039Z,52.88
2022-10-29T01:09:18.776Z,53.15
2022-10-29T01:12:42.230Z,53.14
2022-10-29T01:15:49.518Z,53.19
2022-10-29T01:18:59.694Z,52.83
2022-10-29T01:22:07.941Z,53.16
2022-10-29T01:25:23.518Z,53.07
2022-10-29T01:28:33.821Z,53.09
2022-10-29T01:31:40.458Z,53.09
2022-10-29T01:34:47.159Z,53.23
2022-10-29T01:37:56.006Z,53.02
2022-10-29T01:41:01.756Z,52.98
2022-10-29T01:44:08.391Z,52.92
2022-10-29T01:47:15.231Z,53.22
2022-10-29T01:50:20.609Z,53.09
2022-10-29T01:53:24.025Z,52.77
2022-10-29T01:56:26.854Z,53.10
2022-10-29T01:59:36.409Z,53.08
2022-10-29T02:03:01.769Z,53.04
2022-10-29T02:06:08.238Z,52.94
2022-10-29T02:09:16.604Z,52.94
2022-10-29T02:12:23.469Z,53.13
2022-10-29T02:15:27.742Z,52.78
2022-10-29T02:18:31.845Z,52.92
2022-10-29T02:21:34.693Z,52.80
2022-10-29T02:24:37.471Z,52.84
2022-10-29T02:27:40.424Z,52.78
2022-10-29T02:30:43.224Z,53.11
2022-10-29T02:33:47.389Z,52.83
2022-10-29T02:36:50.141Z,52.87
2022-10-29T02:39:52.917Z,52.74
2022-10-29T02:42:56.330Z,52.88
2022-10-29T02:46:14.130Z,52.71
2022-10-29T02:49:18.341Z,52.98
2022-10-29T02:52:21.141Z,52.80
2022-10-29T02:55:23.968Z,53.14
2022-10-29T02:58:26.877Z,52.87
2022-10-29T03:01:29.794Z,52.69
2022-10-29T03:04:34.009Z,52.72
2022-10-29T03:07:37.581Z,52.94
2022-10-29T03:10:40.385Z,52.92
2022-10-29T03:13:43.190Z,53.19
2022-10-29T03:16:45.921Z,52.98
2022-10-29T03:19:50.152Z,53.00
2022-10-29T03:22:52.944Z,52.92
2022-10-29T03:25:56.799Z,52.83
2022-10-29T03:28:59.672Z,52.71
2022-10-29T03:32:02.424Z,52.90
2022-10-29T03:35:07.152Z,53.00
2022-10-29T03:38:09.938Z,52.92
2022-10-29T03:41:12.715Z,52.78
2022-10-29T03:44:15.506Z,53.08
2022-10-29T03:47:18.268Z,52.87
2022-10-29T03:50:22.485Z,52.82
2022-10-29T03:53:25.681Z,52.78
2022-10-29T03:56:28.493Z,52.66
2022-10-29T03:59:31.303Z,52.39
2022-10-29T04:02:34.241Z,52.51
2022-10-29T04:05:38.431Z,52.41
2022-10-29T04:08:41.171Z,52.45
2022-10-29T04:11:44.000Z,52.21
2022-10-29T04:14:48.493Z,52.33
2022-10-29T04:17:51.825Z,52.27
2022-10-29T04:28:41.250Z,52.30
2022-10-29T04:31:09.218Z,51.97
2022-10-29T04:34:11.962Z,52.43
2022-10-29T04:37:16.146Z,52.44
2022-10-29T04:40:18.860Z,52.17
2022-10-29T04:43:21.685Z,52.05
2022-10-29T04:46:24.495Z,52.09
2022-10-29T04:49:27.294Z,52.26
2022-10-29T04:52:31.534Z,52.23
2022-10-29T04:55:36.862Z,52.31
2022-10-29T04:58:39.645Z,52.25
2022-10-29T05:01:42.406Z,52.15
2022-10-29T05:04:45.161Z,52.08
2022-10-29T05:07:49.348Z,52.52
2022-10-29T05:10:52.066Z,52.53
2022-10-29T05:13:54.880Z,52.36
2022-10-29T05:16:57.696Z,51.76
2022-10-29T05:20:00.544Z,51.77
2022-10-29T05:23:05.597Z,51.70
2022-10-29T05:26:08.374Z,52.29
2022-10-29T05:29:11.164Z,52.06
2022-10-29T05:32:14.106Z,52.32
2022-10-29T05:35:16.965Z,52.13
2022-10-29T05:38:21.158Z,52.13
2022-10-29T05:41:23.959Z,52.36
2022-10-29T05:44:26.728Z,51.98
2022-10-29T05:47:29.513Z,51.94
2022-10-29T05:50:32.872Z,52.20
2022-10-29T05:53:37.006Z,52.51
2022-10-29T05:56:39.819Z,52.18
2022-10-29T05:59:42.638Z,52.29
2022-10-29T06:02:45.749Z,52.24
2022-10-29T06:05:49.291Z,52.67
2022-10-29T06:08:53.474Z,52.55
2022-10-29T06:11:56.552Z,52.46
2022-10-29T06:14:59.291Z,52.23
2022-10-29T06:18:02.099Z,52.27
2022-10-29T06:21:04.979Z,52.30
2022-10-29T06:24:10.442Z,52.14
2022-10-29T06:27:13.232Z,51.93
2022-10-29T06:30:16.073Z,52.13
2022-10-29T06:33:19.421Z,52.08
2022-10-29T06:36:22.472Z,51.95
2022-10-29T06:39:26.676Z,52.02
2022-10-29T06:42:29.391Z,51.49
2022-10-29T06:45:32.762Z,51.59
2022-10-29T06:48:35.503Z,51.45
2022-10-29T06:51:38.710Z,51.49
2022-10-29T06:54:42.825Z,51.72
2022-10-29T06:57:45.615Z,51.68
2022-10-29T07:00:49.061Z,51.47
2022-10-29T07:03:51.909Z,51.47
2022-10-29T07:06:54.681Z,51.42
2022-10-29T07:09:59.346Z,51.59
2022-10-29T07:13:02.132Z,51.61
2022-10-29T07:16:05.123Z,51.72
2022-10-29T07:19:08.181Z,51.60
2022-10-29T07:22:11.075Z,51.61
2022-10-29T07:25:15.244Z,51.22
2022-10-29T07:28:20.884Z,51.64
2022-10-29T07:31:23.752Z,51.65
2022-10-29T07:34:26.535Z,51.38
2022-10-29T07:37:29.317Z,51.55
2022-10-29T07:40:33.456Z,51.32
2022-10-29T07:43:36.219Z,51.78
2022-10-29T07:46:38.998Z,51.99
2022-10-29T07:49:41.789Z,51.78
2022-10-29T07:52:44.583Z,51.54
2022-10-29T07:55:54.398Z,51.49
2022-10-29T07:58:57.187Z,51.40
2022-10-29T08:02:00.038Z,51.78
2022-10-29T08:05:02.918Z,51.69
2022-10-29T08:08:06.151Z,51.91
2022-10-29T08:11:10.361Z,51.48
2022-10-29T08:14:14.970Z,51.26
2022-10-29T08:17:19.470Z,51.50
2022-10-29T08:20:23.119Z,50.82
2022-10-29T08:23:25.965Z,51.12
2022-10-29T08:26:30.121Z,51.21
2022-10-29T08:29:33.964Z,51.09
2022-10-29T08:32:36.836Z,50.87
2022-10-29T08:35:39.838Z,51.21
2022-10-29T08:38:42.679Z,51.60
2022-10-29T08:41:51.778Z,51.67
2022-10-29T08:45:06.237Z,51.75
2022-10-29T08:48:22.100Z,52.13
2022-10-29T08:51:27.066Z,51.97
2022-10-29T08:54:32.417Z,51.85
2022-10-29T08:57:38.934Z,52.01
2022-10-29T09:00:43.111Z,52.08
2022-10-29T09:03:46.108Z,51.72
2022-10-29T09:06:54.093Z,51.89
2022-10-29T09:10:00.499Z,51.86
2022-10-29T09:13:18.488Z,52.38
2022-10-29T09:16:26.966Z,52.28
2022-10-29T09:19:37.334Z,52.12
2022-10-29T09:22:45.827Z,52.61
2022-10-29T09:25:52.061Z,52.61
2022-10-29T09:29:03.108Z,51.86
2022-10-29T09:32:08.799Z,51.99
2022-10-29T09:35:14.898Z,52.13
2022-10-29T09:38:19.370Z,52.22
2022-10-29T09:41:23.347Z,52.15
2022-10-29T09:44:31.714Z,52.14
2022-10-29T09:47:39.510Z,52.12
2022-10-29T09:50:50.853Z,52.05
2022-10-29T09:53:53.820Z,51.97
2022-10-29T09:56:57.089Z,51.81
2022-10-29T10:00:02.440Z,51.90
2022-10-29T10:03:09.287Z,51.99
2022-10-29T10:06:12.779Z,52.47
2022-10-29T10:09:15.575Z,52.72
2022-10-29T10:12:18.715Z,53.09
2022-10-29T10:15:24.928Z,53.04
2022-10-29T10:18:28.452Z,53.05
2022-10-29T10:21:32.279Z,53.09
2022-10-29T10:24:35.980Z,53.20
2022-10-29T10:27:38.771Z,53.19
2022-10-29T10:30:43.390Z,53.00
2022-10-29T10:33:50.431Z,53.03
2022-10-29T10:36:55.197Z,52.90
2022-10-29T10:40:01.475Z,52.84
2022-10-29T10:43:08.141Z,52.70
2022-10-29T10:46:16.969Z,52.90
2022-10-29T10:49:22.014Z,52.82
2022-10-29T10:52:27.660Z,52.67
2022-10-29T10:55:32.866Z,52.67
2022-10-29T10:58:37.356Z,52.25
2022-10-29T11:01:44.025Z,52.50
2022-10-29T11:04:51.155Z,52.17
2022-10-29T11:07:58.753Z,51.94
2022-10-29T11:11:05.214Z,51.74
2022-10-29T11:14:11.771Z,51.88
2022-10-29T11:17:23.766Z,52.05
2022-10-29T11:20:28.332Z,51.97
2022-10-29T11:23:35.473Z,52.06
2022-10-29T11:26:40.775Z,52.14
2022-10-29T11:29:49.100Z,52.13
2022-10-29T11:33:04.700Z,51.99
2022-10-29T11:36:12.703Z,51.66
2022-10-29T11:39:19.000Z,51.86
2022-10-29T11:42:21.802Z,51.92
2022-10-29T11:45:28.182Z,51.57
2022-10-29T11:48:49.705Z,51.87
2022-10-29T11:51:55.553Z,51.71
2022-10-29T11:55:05.143Z,51.52
2022-10-29T11:58:12.966Z,51.58
2022-10-29T12:01:20.162Z,52.35
2022-10-29T12:04:27.455Z,51.86
2022-10-29T12:07:37.639Z,51.78
2022-10-29T12:10:45.337Z,51.59
2022-10-29T12:13:52.261Z,51.58
2022-10-29T12:17:00.450Z,51.71
2022-10-29T12:20:11.855Z,52.04
2022-10-29T12:23:25.361Z,51.81
2022-10-29T12:26:32.314Z,51.96
2022-10-29T12:29:40.174Z,52.08
2022-10-29T12:32:48.815Z,51.80
2022-10-29T12:35:57.413Z,52.38
2022-10-29T12:39:01.104Z,52.29
2022-10-29T12:42:06.013Z,52.23
2022-10-29T12:45:16.968Z,52.32
2022-10-29T12:48:24.183Z,52.72
2022-10-29T12:51:33.903Z,52.20
2022-10-29T12:54:38.357Z,51.00
2022-10-29T12:57:41.242Z,51.74
2022-10-29T13:00:48.638Z,52.26
2022-10-29T13:04:02.351Z,52.18
2022-10-29T13:07:23.687Z,51.96
2022-10-29T13:10:45.403Z,51.71
2022-10-29T13:14:06.117Z,51.74
2022-10-29T13:17:22.015Z,51.34
2022-10-29T13:20:31.505Z,51.75
2022-10-29T13:23:37.565Z,51.92
2022-10-29T13:27:01.488Z,51.93
2022-10-29T13:30:19.374Z,51.57
2022-10-29T13:33:48.886Z,51.67
2022-10-29T13:36:51.662Z,52.18
2022-10-29T13:40:09.254Z,51.87
2022-10-29T13:43:16.785Z,51.54
2022-10-29T13:46:33.782Z,51.71
2022-10-29T13:49:40.193Z,51.95
2022-10-29T13:52:43.225Z,51.56
2022-10-29T13:55:46.342Z,51.86
2022-10-29T13:58:58.642Z,52.01
2022-10-29T14:02:06.363Z,52.34
2022-10-29T14:05:15.545Z,52.46
2022-10-29T14:08:19.876Z,52.86
2022-10-29T14:11:25.422Z,52.87
2022-10-29T14:14:33.728Z,52.69
2022-10-29T14:17:36.481Z,52.96
2022-10-29T14:20:39.212Z,53.18
2022-10-29T14:23:42.080Z,53.18
2022-10-29T14:26:45.949Z,52.99
2022-10-29T14:29:53.061Z,52.84
2022-10-29T14:32:58.277Z,52.86
2022-10-29T14:36:04.954Z,52.63
2022-10-29T14:39:14.498Z,52.67
2022-10-29T14:45:24.566Z,52.43
2022-10-29T14:48:27.295Z,52.34
2022-10-29T14:51:32.957Z,52.21
2022-10-29T14:54:37.473Z,51.81
2022-10-29T14:57:41.704Z,51.74
2022-10-29T15:00:56.036Z,51.54
2022-10-29T15:04:00.704Z,51.61
2022-10-29T15:07:18.114Z,51.64
2022-10-29T15:10:23.133Z,51.52
2022-10-29T15:13:31.933Z,51.79
2022-10-29T15:16:38.373Z,51.95
2022-10-29T15:19:46.136Z,51.92
2022-10-29T15:22:53.893Z,51.65
2022-10-29T15:25:59.955Z,51.64
2022-10-29T15:29:03.734Z,51.77
2022-10-29T15:32:14.368Z,51.90
2022-10-29T15:35:20.503Z,51.70
2022-10-29T15:38:41.978Z,51.82
2022-10-29T15:41:46.474Z,51.66
2022-10-29T15:45:04.130Z,51.55
2022-10-29T15:48:24.747Z,52.43
2022-10-29T15:51:29.604Z,51.91
2022-10-29T15:54:32.412Z,51.96
2022-10-29T15:57:35.211Z,51.84
2022-10-29T16:00:37.994Z,52.23
2022-10-29T16:03:40.741Z,51.88
2022-10-29T16:06:45.012Z,51.66
2022-10-29T16:09:49.645Z,51.69
2022-10-29T16:12:52.505Z,51.88
2022-10-29T16:15:55.352Z,51.64
2022-10-29T16:18:58.624Z,51.87
2022-10-29T16:22:02.798Z,51.93
2022-10-29T16:25:06.035Z,51.88
2022-10-29T16:28:09.114Z,51.69
2022-10-29T16:31:19.784Z,51.94
2022-10-29T16:34:24.763Z,52.03
2022-10-29T16:37:29.058Z,51.83
2022-10-29T16:40:32.051Z,51.87
2022-10-29T16:43:34.799Z,51.97
2022-10-29T16:46:37.696Z,52.16
2022-10-29T16:49:40.486Z,51.89
2022-10-29T16:52:44.816Z,51.52
2022-10-29T16:55:47.594Z,51.63
2022-10-29T16:58:50.377Z,51.60
2022-10-29T17:01:53.160Z,51.47
2022-10-29T17:04:58.936Z,52.34
2022-10-29T17:08:03.087Z,52.67
2022-10-29T17:11:08.905Z,53.25
2022-10-29T17:14:11.820Z,53.30
2022-10-29T17:17:15.246Z,52.94
2022-10-29T17:20:18.081Z,52.85
2022-10-29T17:23:22.251Z,52.94
2022-10-29T17:26:24.992Z,52.64
2022-10-29T17:29:30.294Z,52.94
2022-10-29T17:32:35.276Z,52.88
2022-10-29T17:35:38.069Z,53.46
2022-10-29T17:38:42.493Z,53.43
2022-10-29T17:41:45.305Z,53.28
2022-10-29T17:44:48.062Z,53.21
2022-10-29T17:47:55.307Z,53.26
2022-10-29T17:50:58.888Z,53.18
2022-10-29T17:54:03.042Z,52.73
2022-10-29T17:57:05.854Z,52.77
2022-10-29T18:00:09.151Z,52.69
2022-10-29T18:03:11.959Z,52.69
2022-10-29T18:06:15.239Z,52.41
2022-10-29T18:09:21.233Z,52.81
2022-10-29T18:12:24.455Z,52.64
2022-10-29T18:15:27.351Z,52.36
2022-10-29T18:18:34.779Z,52.46
2022-10-29T18:21:45.836Z,52.37
2022-10-29T18:24:50.033Z,52.34
2022-10-29T18:27:55.668Z,52.15
2022-10-29T18:30:58.552Z,52.72
2022-10-29T18:34:02.411Z,52.43
2022-10-29T18:37:06.657Z,52.22
2022-10-29T18:40:12.950Z,51.80
2022-10-29T18:43:15.734Z,51.77
2022-10-29T18:46:19.191Z,51.87
2022-10-29T18:49:22.013Z,52.00
2022-10-29T18:52:24.794Z,51.70
2022-10-29T18:55:28.979Z,51.63
2022-10-29T18:58:33.479Z,51.50
2022-10-29T19:01:37.665Z,51.84
2022-10-29T19:04:40.573Z,51.76
2022-10-29T19:07:43.355Z,51.56
2022-10-29T19:10:47.512Z,51.80
2022-10-29T19:13:53.379Z,51.31
2022-10-29T19:16:56.224Z,51.57
2022-10-29T19:19:58.983Z,51.66
2022-10-29T19:23:05.468Z,51.77
2022-10-29T19:26:10.446Z,51.75
2022-10-29T19:29:13.409Z,51.57
2022-10-29T19:32:16.161Z,51.68
2022-10-29T19:35:18.985Z,51.56
2022-10-29T19:38:21.746Z,50.97
2022-10-29T19:41:26.446Z,51.45
2022-10-29T19:44:29.385Z,51.64
2022-10-29T19:47:32.178Z,51.57
2022-10-29T19:50:34.959Z,51.15
2022-10-29T19:53:38.878Z,51.47
2022-10-29T19:56:43.046Z,51.41
2022-10-29T19:59:45.789Z,51.74
2022-10-29T20:02:48.564Z,51.86
2022-10-29T20:05:56.223Z,52.00
2022-10-29T20:08:59.045Z,52.11
2022-10-29T20:12:03.201Z,51.72
2022-10-29T20:15:06.766Z,51.89
2022-10-29T20:18:09.563Z,51.35
2022-10-29T20:21:13.728Z,51.49
2022-10-29T20:24:16.498Z,51.44
2022-10-29T20:27:20.650Z,51.30
2022-10-29T20:30:23.469Z,51.07
2022-10-29T20:33:26.270Z,51.58
2022-10-29T20:36:29.786Z,51.68
2022-10-29T20:39:33.569Z,51.28
2022-10-29T20:42:37.960Z,51.11
2022-10-29T20:45:40.768Z,51.31
2022-10-29T20:48:43.583Z,51.42
2022-10-29T20:51:46.363Z,51.05
2022-10-29T20:54:49.125Z,51.49
2022-10-29T20:57:53.330Z,51.42
2022-10-29T21:00:56.090Z,51.49
2022-10-29T21:03:58.948Z,51.40
2022-10-29T21:07:01.747Z,51.13
2022-10-29T21:10:04.527Z,51.63
2022-10-29T21:13:10.177Z,51.16
2022-10-29T21:16:16.309Z,51.59
2022-10-29T21:19:19.157Z,51.37
2022-10-29T21:22:21.961Z,51.43
2022-10-29T21:25:24.745Z,51.28
2022-10-29T21:28:28.854Z,51.37
2022-10-29T21:31:31.662Z,51.60
2022-10-29T21:34:34.414Z,51.57
2022-10-29T21:37:37.182Z,51.72
2022-10-29T21:40:39.964Z,51.69
2022-10-29T21:43:44.097Z,51.72
2022-10-29T21:46:46.873Z,51.92
2022-10-29T21:49:51.829Z,51.88
2022-10-29T21:52:57.232Z,52.35
2022-10-29T21:56:00.909Z,51.72
2022-10-29T21:59:05.059Z,51.88
2022-10-29T22:02:07.959Z,51.69
2022-10-29T22:05:10.914Z,51.65
2022-10-29T22:08:13.708Z,51.79
2022-10-29T22:11:16.746Z,51.66
2022-10-29T22:14:20.866Z,51.88
2022-10-29T22:17:23.598Z,51.42
2022-10-29T22:20:26.283Z,51.45
2022-10-29T22:23:29.006Z,51.82
2022-10-29T22:26:31.996Z,51.71
2022-10-29T22:29:36.133Z,51.91
2022-10-29T22:32:38.879Z,51.73
2022-10-29T22:35:41.532Z,52.00
2022-10-29T22:38:44.537Z,51.70
2022-10-29T22:41:47.291Z,51.80
2022-10-29T22:44:51.458Z,51.64
2022-10-29T22:47:54.222Z,51.79
2022-10-29T22:51:00.815Z,51.53
2022-10-29T22:54:03.871Z,51.72
2022-10-29T22:57:06.670Z,51.51
2022-10-29T23:00:11.741Z,51.78
2022-10-29T23:03:14.456Z,51.87
2022-10-29T23:06:18.194Z,51.73
2022-10-29T23:09:20.991Z,51.75
2022-10-29T23:12:23.882Z,52.01
2022-10-29T23:15:27.994Z,51.50
2022-10-29T23:18:31.395Z,51.85
2022-10-29T23:21:34.531Z,51.99
2022-10-29T23:24:37.363Z,51.63
2022-10-29T23:27:40.149Z,51.53
2022-10-29T23:30:44.310Z,51.80
2022-10-29T23:33:47.885Z,51.70
2022-10-29T23:39:58.362Z,50.88
2022-10-29T23:43:01.172Z,50.63
2022-10-29T23:46:05.620Z,50.70
2022-10-29T23:49:08.384Z,50.96
2022-10-29T23:52:11.124Z,50.76
2022-10-29T23:55:13.962Z,50.58
2022-10-29T23:58:17.732Z,50.82
